Weather at Orlampa Inc Airport

Public forecast

Using degrees Fahrenheit for public forecast. Weather courtesy of forecast.io.

Closest aviation weather report (METAR) to Orlampa Inc Airport

Closest report is Winter Haven Regional Airport - Gilbert Field, 6.9 nm (12.8 km) SSE. Retrieved 2021/01/16 22:53 UTC (1 hour ago):

KGIF 162253Z AUTO 28008KT 10SM SCT050 14/05 A3001 RMK AO2 SLP160 T01440050

Closest aviation forecast (TAF) to Orlampa Inc Airport

Closest forecast is Lakeland Linder International Airport, 15.4 nm (28.6 km) SW. Retrieved 2021/01/16 18:36 UTC (5 hours ago):

TAF KLAL 161734Z 1618/1718 28011G20KT P6SM SCT040 SCT070 FM162300 29006KT P6SM SCT035 SCT060 FM170200 VRB03KT P6SM SCT030 BKN050 FM171700 22006KT P6SM SCT030 BKN060